METAR Data
IDs: Format: Raw Decoded Include TAF

Data at: 0120 UTC 06 Dec 2019

KTHA 060115Z AUTO 00000KT 10SM SCT120 08/01 A3012 RMK A01
KTHA 060055Z AUTO 00000KT 10SM CLR 08/01 A3012 RMK A01
KTHA 060035Z AUTO 00000KT 10SM CLR 08/01 A3011 RMK A01
KTHA 060015Z AUTO 00000KT 10SM FEW120 08/02 A3011 RMK A01
KTHA 052355Z AUTO 00000KT 10SM CLR 07/01 A3011 RMK A01
KTHA 052335Z AUTO 00000KT 10SM FEW120 08/M01 A3010 RMK A01
KTHA 052315Z AUTO 00000KT 10SM FEW120 09/M01 A3010 RMK A01
KTHA 052255Z AUTO 00000KT 10SM CLR 11/M02 A3010 RMK A01
KTHA 052230Z AUTO 00000KT 10SM CLR 14/M02 A3009 RMK A01
KTHA 052215Z AUTO 00000KT 10SM CLR 14/M02 A3009 RMK A01
KTHA 052155Z AUTO 00000KT 10SM CLR 14/M01 A3009 RMK A01
KTHA 052135Z AUTO 18007KT 10SM CLR 15/M01 A3009 RMK A01
KTHA 052115Z AUTO 18004KT 10SM CLR 16/M01 A3009 RMK A01
KTHA 052055Z AUTO 18004KT 10SM CLR 16/M01 A3009 RMK A01
KTHA 052035Z AUTO 23004KT 10SM CLR 16/M01 A3009 RMK A01
KTHA 052015Z AUTO 18004KT 10SM CLR 16/M02 A3009 RMK A01
KTHA 051955Z AUTO VRB03KT 10SM CLR 16/M01 A3009 RMK A01
KTHA 051935Z AUTO 15005KT 10SM CLR 16/M03 A3010 RMK A01
KTHA 051915Z AUTO 15006KT 10SM CLR 16/M02 A3010 RMK A01
KTHA 051855Z AUTO VRB04KT 10SM CLR 16/M02 A3010 RMK A01
KTHA 051835Z AUTO 19003KT 10SM CLR 15/M02 A3011 RMK A01
KTHA 051815Z AUTO 00000KT 10SM CLR 15/M02 A3012 RMK A01
KTHA 051755Z AUTO VRB03KT 10SM CLR 15/M02 A3012 RMK A01
KTHA 051735Z AUTO 13005KT 10SM CLR 14/M01 A3013 RMK A01
KTHA 051715Z AUTO 13006KT 10SM CLR 14/M01 A3014 RMK A01
KTHA 051655Z AUTO 12005G11KT 10SM CLR 13/M01 A3015 RMK A01
KTHA 051615Z AUTO 14005KT 10SM CLR 12/00 A3016 RMK A01
KTHA 051555Z AUTO VRB04KT 10SM CLR 11/01 A3016 RMK A01
KTHA 051535Z AUTO 16006KT 10SM CLR 11/00 A3016 RMK A01
KTHA 051515Z AUTO 00000KT 10SM CLR 10/01 A3016 RMK A01
KTHA 051455Z AUTO 00000KT 10SM CLR 08/02 A3015 RMK A01
KTHA 051435Z AUTO 00000KT 10SM CLR 06/02 A3014 RMK A01
KTHA 051415Z AUTO 00000KT 10SM CLR 04/01 A3013 RMK A01
KTHA 051355Z AUTO 00000KT 10SM CLR 03/00 A3012 RMK A01
KTHA 051335Z AUTO 00000KT 10SM CLR 01/M01 A3011 RMK A01
KTHA 051315Z AUTO 00000KT 10SM CLR 00/M01 A3011 RMK A01
KTHA 051255Z AUTO 00000KT 10SM CLR 00/M01 A3010 RMK A01
KTHA 051235Z AUTO 00000KT 10SM CLR M00/M01 A3009 RMK A01
KTHA 051215Z AUTO 00000KT 10SM CLR M01/M02 A3008 RMK A01
KTHA 051155Z AUTO 00000KT 10SM CLR M00/M02 A3007 RMK A01
KTHA 051135Z AUTO 00000KT 10SM CLR 00/M02 A3006 RMK A01
KTHA 051115Z AUTO 00000KT 10SM CLR M00/M02 A3006 RMK A01
KTHA 051055Z AUTO 00000KT 10SM CLR M01/M02 A3006 RMK A01
KTHA 051035Z AUTO 00000KT 10SM CLR M01/M03 A3005 RMK A01
KTHA 051015Z AUTO 00000KT 10SM CLR M01/M03 A3005 RMK A01
KTHA 050955Z AUTO 00000KT 10SM CLR M01/M03 A3005 RMK A01
KTHA 050935Z AUTO 00000KT 10SM CLR M02/M03 A3005 RMK A01
KTHA 050915Z AUTO 00000KT 10SM CLR M01/M02 A3005 RMK A01
KTHA 050855Z AUTO 00000KT 10SM CLR M01/M03 A3005 RMK A01
KTHA 050835Z AUTO 00000KT 10SM CLR M01/M02 A3005 RMK A01
KTHA 050810Z AUTO 00000KT 10SM CLR 00/M01 A3004 RMK A01
KTHA 050755Z AUTO 00000KT 10SM CLR 00/M02 A3003 RMK A01
KTHA 050735Z AUTO 00000KT 10SM CLR 03/M01 A3003 RMK A01
KTHA 050715Z AUTO 00000KT 10SM CLR 04/M01 A3003 RMK A01
KTHA 050655Z AUTO 00000KT 10SM CLR 04/M01 A3002 RMK A01
KTHA 050615Z AUTO 00000KT 10SM CLR 04/M02 A3002 RMK A01
KTHA 050555Z AUTO 27004KT 10SM CLR 03/M02 A3002 RMK A01
KTHA 050535Z AUTO 27006KT 10SM CLR 03/M02 A3003 RMK A01
KTHA 050515Z AUTO 29005KT 10SM CLR 04/M02 A3002 RMK A01
KTHA 050455Z AUTO 29005KT 10SM CLR 03/M02 A3001 RMK A01
KTHA 050435Z AUTO 29005KT 10SM CLR 01/M03 A3001 RMK A01
KTHA 050415Z AUTO 30005KT 10SM CLR 01/M02 A3000 RMK A01
KTHA 050355Z AUTO 00000KT 10SM CLR 01/M02 A3000 RMK A01
KTHA 050335Z AUTO 00000KT 10SM CLR 01/M02 A2999 RMK A01
KTHA 050315Z AUTO 00000KT 10SM CLR 00/M03 A2998 RMK A01
KTHA 050255Z AUTO 00000KT 10SM CLR 03/M02 A2998 RMK A01
KTHA 050235Z AUTO 24003KT 10SM CLR 01/M03 A2997 RMK A01
KTHA 050215Z AUTO 00000KT 10SM CLR 03/M01 A2997 RMK A01
KTHA 050155Z AUTO 00000KT 10SM CLR 02/M01 A2997 RMK A01
KTHA 050135Z AUTO 25004KT 10SM CLR 02/M02 A2996 RMK A01
KTHA 050115Z AUTO 29003KT 10SM CLR 06/M02 A2996 RMK A01
KTHA 050055Z AUTO 00000KT 10SM CLR 06/M02 A2996 RMK A01
KTHA 050035Z AUTO 00000KT 10SM CLR 07/M02 A2996 RMK A01
KTHA 050015Z AUTO 00000KT 10SM CLR 07/M02 A2995 RMK A01
KTHA 042355Z AUTO 00000KT 10SM CLR 06/M01 A2995 RMK A01
KTHA 042335Z AUTO 26003KT 10SM CLR 06/M01 A2995 RMK A01
KTHA 042315Z AUTO 26004KT 10SM CLR 07/M01 A2994 RMK A01
KTHA 042255Z AUTO 28004KT 10SM CLR 08/M02 A2993 RMK A01
KTHA 042235Z AUTO 29004KT 10SM CLR 10/M03 A2993 RMK A01
KTHA 042215Z AUTO 29005KT 10SM CLR 11/M02 A2992 RMK A01
KTHA 042155Z AUTO 28004KT 10SM CLR 11/M02 A2991 RMK A01
KTHA 042135Z AUTO 27007KT 10SM CLR 12/M02 A2991 RMK A01
KTHA 042115Z AUTO 27009KT 10SM CLR 13/M02 A2990 RMK A01
KTHA 042055Z AUTO 26008KT 10SM CLR 14/M01 A2990 RMK A01
KTHA 042035Z AUTO 29008KT 10SM CLR 14/M02 A2989 RMK A01
KTHA 042015Z AUTO 28008G14KT 10SM CLR 14/M01 A2989 RMK A01
KTHA 041955Z AUTO 29010KT 260V320 10SM CLR 14/M01 A2989 RMK A01
KTHA 041935Z AUTO 29011G17KT 10SM CLR 14/M01 A2989 RMK A01
KTHA 041915Z AUTO 28010KT 10SM CLR 14/M01 A2988 RMK A01
KTHA 041855Z AUTO 29010G15KT 10SM CLR 13/M01 A2988 RMK A01
KTHA 041835Z AUTO 31009KT 10SM CLR 13/M00 A2989 RMK A01
KTHA 041815Z AUTO 31010KT 270V330 10SM CLR 13/00 A2989 RMK A01
KTHA 041755Z AUTO 31012KT 10SM CLR 13/01 A2990 RMK A01
KTHA 041735Z AUTO 31011KT 10SM CLR 12/01 A2991 RMK A01
KTHA 041715Z AUTO 29009KT 10SM CLR 12/01 A2992 RMK A01
KTHA 041655Z AUTO 32006G11KT 10SM CLR 11/01 A2993 RMK A01
KTHA 041635Z AUTO 32004G10KT 10SM CLR 10/01 A2993 RMK A01
KTHA 041615Z AUTO 26007KT 10SM CLR 09/01 A2993 RMK A01
KTHA 041555Z AUTO 29005KT 10SM CLR 08/01 A2993 RMK A01
KTHA 041535Z AUTO 26005KT 10SM CLR 07/01 A2993 RMK A01
KTHA 041515Z AUTO 25004KT 10SM CLR 06/01 A2993 RMK A01
KTHA 041455Z AUTO 24004KT 10SM CLR 05/01 A2992 RMK A01
KTHA 041435Z AUTO 23003KT 10SM CLR 04/01 A2992 RMK A01
KTHA 041415Z AUTO 00000KT 10SM CLR 02/00 A2991 RMK A01
KTHA 041355Z AUTO 00000KT 10SM CLR 00/M01 A2991 RMK A01
KTHA 041335Z AUTO 00000KT 10SM CLR M02/M03 A2990 RMK A01